Time;durP1;ratioP1;P1;durP2;ratioP2;P2;SDS_P1;SDS_P2;PMS_P1;PMS_P2;Temp;Humidity;BMP_temperature;BMP_pressure;BME280_temperature;BME280_humidity;BME280_pressure;Samples;Min_cycle;Max_cycle;Signal;HPM_P1;HPM_P2
2024/01/16 00:01:18;;;;;;;7.10;3.10;;;-2.40;99.90;;;;;;5053623;28;20256;-64
2024/01/16 00:03:44;;;;;;;5.47;3.00;;;-2.40;99.90;;;;;;5054076;28;20201;-64
2024/01/16 00:06:10;;;;;;;6.30;2.40;;;-2.30;99.90;;;;;;5054624;28;20190;-64
2024/01/16 00:08:35;;;;;;;17.30;3.53;;;-2.30;99.90;;;;;;5054540;28;20523;-63
2024/01/16 00:11:02;;;;;;;10.83;3.40;;;-2.30;99.90;;;;;;5054580;28;20239;-64
2024/01/16 00:13:28;;;;;;;4.10;2.47;;;-2.30;99.90;;;;;;5046111;28;20224;-64
2024/01/16 00:15:54;;;;;;;5.37;3.23;;;-2.30;99.90;;;;;;5053090;28;20503;-64
2024/01/16 00:18:19;;;;;;;6.20;2.80;;;-2.20;99.90;;;;;;5054048;28;20701;-63
2024/01/16 00:20:44;;;;;;;5.33;2.37;;;-2.20;99.90;;;;;;5054350;28;20185;-63
2024/01/16 00:23:10;;;;;;;8.53;3.60;;;-2.20;99.90;;;;;;5054210;28;20265;-64
2024/01/16 00:25:35;;;;;;;5.00;2.50;;;-2.20;99.90;;;;;;5054178;28;20182;-64
2024/01/16 00:28:02;;;;;;;7.13;2.93;;;-2.20;99.90;;;;;;5053967;28;20642;-64
2024/01/16 00:30:27;;;;;;;5.10;2.10;;;-2.20;99.90;;;;;;5040262;28;20210;-64
2024/01/16 00:32:53;;;;;;;7.23;2.93;;;-2.20;99.90;;;;;;5053809;28;20431;-64
2024/01/16 00:35:19;;;;;;;8.27;2.80;;;-2.20;99.90;;;;;;5054006;28;20178;-64
2024/01/16 00:37:44;;;;;;;8.27;2.90;;;-2.10;99.90;;;;;;5042956;28;20177;-64
2024/01/16 00:40:10;;;;;;;8.63;3.03;;;-2.10;99.90;;;;;;5052008;28;20546;-64
2024/01/16 00:42:35;;;;;;;9.50;4.13;;;-2.00;99.90;;;;;;5054228;28;20210;-64
2024/01/16 00:45:01;;;;;;;7.70;2.13;;;-2.10;99.90;;;;;;5053260;28;20765;-64
2024/01/16 00:47:27;;;;;;;10.83;2.67;;;-2.10;99.90;;;;;;5054027;28;20182;-64
2024/01/16 00:49:52;;;;;;;7.53;3.10;;;-2.00;99.90;;;;;;5039852;28;20595;-64
2024/01/16 00:52:19;;;;;;;9.80;3.30;;;-2.10;99.90;;;;;;5053904;28;20170;-64
2024/01/16 00:54:44;;;;;;;6.47;2.70;;;-2.10;99.90;;;;;;5049054;28;20195;-64
2024/01/16 00:57:10;;;;;;;4.87;2.70;;;-2.10;99.90;;;;;;5044170;28;20459;-64
2024/01/16 00:59:37;;;;;;;5.13;2.70;;;-2.10;99.90;;;;;;5038403;28;20185;-64
2024/01/16 01:02:03;;;;;;;5.07;2.40;;;-2.10;99.90;;;;;;5053530;28;20189;-63
2024/01/16 01:04:29;;;;;;;4.77;1.70;;;-2.10;99.90;;;;;;5052740;28;20463;-64
2024/01/16 01:06:55;;;;;;;4.30;2.20;;;-2.10;99.90;;;;;;5053555;28;20461;-64
2024/01/16 01:09:20;;;;;;;8.80;2.40;;;-2.10;99.90;;;;;;5053014;28;20464;-63
2024/01/16 01:11:46;;;;;;;7.70;2.70;;;-2.10;99.90;;;;;;5053539;28;20181;-64
2024/01/16 01:14:11;;;;;;;3.70;2.23;;;-2.10;99.90;;;;;;5046994;28;20170;-64
2024/01/16 01:16:37;;;;;;;6.67;2.50;;;-2.10;99.90;;;;;;5053099;28;20277;-64
2024/01/16 01:19:03;;;;;;;6.63;2.50;;;-2.20;99.90;;;;;;5044345;28;20198;-64
2024/01/16 01:21:29;;;;;;;6.33;3.20;;;-2.10;99.90;;;;;;5053252;28;20197;-64
2024/01/16 01:23:54;;;;;;;5.43;2.73;;;-2.00;99.90;;;;;;5045596;28;20220;-64
2024/01/16 01:26:19;;;;;;;6.03;3.20;;;-2.10;99.90;;;;;;5053445;28;20189;-64
2024/01/16 01:28:46;;;;;;;4.80;2.20;;;-2.10;99.90;;;;;;5048565;28;20186;-64
2024/01/16 01:31:12;;;;;;;5.43;2.20;;;-2.10;99.90;;;;;;5044793;28;20201;-64
2024/01/16 01:33:37;;;;;;;3.20;1.97;;;-2.10;99.90;;;;;;5053036;28;20732;-64
2024/01/16 01:36:03;;;;;;;3.40;1.83;;;-2.10;99.90;;;;;;5053131;28;20428;-64
2024/01/16 01:38:29;;;;;;;3.57;2.43;;;-2.10;99.90;;;;;;5050272;28;20181;-64
2024/01/16 01:40:54;;;;;;;5.43;1.87;;;-2.00;99.90;;;;;;5052850;28;20631;-64
2024/01/16 01:43:20;;;;;;;5.00;2.87;;;-2.00;99.90;;;;;;5048962;28;20174;-64
2024/01/16 01:46:11;;;;;;;5.87;2.60;;;-2.00;99.90;;;;;;5044522;28;20189;-64
2024/01/16 01:48:43;;;;;;;6.40;3.03;;;-1.90;99.90;;;;;;5030125;28;20307;-64
2024/01/16 01:51:10;;;;;;;4.50;1.93;;;-2.10;99.90;;;;;;5048590;28;20944;-64
2024/01/16 01:53:36;;;;;;;6.60;2.80;;;-2.10;99.90;;;;;;5043873;28;20416;-64
2024/01/16 01:56:07;;;;;;;7.50;2.30;;;-2.10;99.90;;;;;;5035297;28;20422;-64
2024/01/16 01:58:38;;;;;;;9.17;2.50;;;-2.10;99.90;;;;;;5039685;28;20417;-64
2024/01/16 02:01:05;;;;;;;8.50;2.80;;;-2.10;99.90;;;;;;5049214;28;20784;-64
2024/01/16 02:03:37;;;;;;;5.47;2.60;;;-2.20;99.90;;;;;;5041644;28;20472;-64
2024/01/16 02:06:02;;;;;;;7.10;3.20;;;-2.30;99.90;;;;;;5050363;28;20433;-64
2024/01/16 02:08:28;;;;;;;6.40;2.27;;;-2.40;99.90;;;;;;5047503;28;20414;-63
2024/01/16 02:10:54;;;;;;;6.37;2.30;;;-2.50;99.90;;;;;;5049747;28;20206;-64
2024/01/16 02:13:23;;;;;;;8.30;2.80;;;-2.40;99.90;;;;;;5048517;28;20670;-64
2024/01/16 02:15:49;;;;;;;4.83;2.70;;;-2.50;99.90;;;;;;5049742;28;20641;-64
2024/01/16 02:18:14;;;;;;;3.63;2.50;;;-2.50;99.90;;;;;;5051934;28;20416;-64
2024/01/16 02:20:39;;;;;;;4.50;2.20;;;-2.60;99.90;;;;;;5052319;28;20424;-64
2024/01/16 02:23:07;;;;;;;11.03;3.60;;;-2.70;99.90;;;;;;5052278;28;20700;-64
2024/01/16 02:25:32;;;;;;;4.33;2.50;;;-2.70;99.90;;;;;;5052230;28;20956;-64
2024/01/16 02:28:00;;;;;;;6.13;2.53;;;-2.70;99.90;;;;;;5048254;28;20416;-64
2024/01/16 02:30:25;;;;;;;4.30;2.10;;;-2.80;99.90;;;;;;5049535;28;20225;-64
2024/01/16 02:32:51;;;;;;;9.77;2.50;;;-2.80;99.90;;;;;;5051925;28;20455;-64
2024/01/16 02:35:18;;;;;;;5.27;2.23;;;-2.70;99.90;;;;;;5051959;28;20183;-64
2024/01/16 02:37:43;;;;;;;3.10;2.13;;;-2.70;99.90;;;;;;5052234;28;20780;-64
2024/01/16 02:40:10;;;;;;;10.70;2.90;;;-2.60;99.90;;;;;;5040486;28;20424;-64
2024/01/16 02:42:37;;;;;;;3.37;2.27;;;-2.70;99.90;;;;;;5052044;28;20181;-64
2024/01/16 02:45:04;;;;;;;4.27;2.13;;;-2.60;99.90;;;;;;5039410;28;20478;-64
2024/01/16 02:47:29;;;;;;;15.67;2.40;;;-2.70;99.90;;;;;;5051959;28;20439;-64
2024/01/16 02:49:55;;;;;;;4.80;2.13;;;-2.70;99.90;;;;;;5051559;28;20456;-64
2024/01/16 02:52:20;;;;;;;4.40;1.90;;;-2.70;99.90;;;;;;5052132;28;20512;-64
2024/01/16 02:54:46;;;;;;;8.90;2.83;;;-2.70;99.90;;;;;;5045398;28;20170;-64
2024/01/16 02:57:11;;;;;;;4.40;1.97;;;-2.60;99.90;;;;;;5042002;28;20185;-64
2024/01/16 02:59:37;;;;;;;9.20;2.67;;;-2.70;99.90;;;;;;5036784;28;20182;-64
2024/01/16 03:02:03;;;;;;;5.30;3.00;;;-2.70;99.90;;;;;;5051574;28;20650;-64
2024/01/16 03:04:29;;;;;;;6.60;2.77;;;-2.80;99.90;;;;;;5051049;28;20232;-64
2024/01/16 03:06:55;;;;;;;3.83;2.20;;;-2.80;99.90;;;;;;5051798;28;20416;-64
2024/01/16 03:09:20;;;;;;;6.50;2.10;;;-2.90;99.90;;;;;;5051628;28;20205;-64
2024/01/16 03:11:46;;;;;;;5.53;2.47;;;-2.90;99.90;;;;;;5051772;28;20180;-64
2024/01/16 03:14:13;;;;;;;5.60;1.97;;;-2.90;99.90;;;;;;5045761;28;20261;-64
2024/01/16 03:16:39;;;;;;;5.90;2.67;;;-2.90;99.90;;;;;;5051558;28;20421;-64
2024/01/16 03:19:05;;;;;;;11.70;2.40;;;-2.90;99.90;;;;;;5048986;28;20422;-64
2024/01/16 03:21:30;;;;;;;6.63;2.33;;;-3.00;99.90;;;;;;5043530;28;20412;-64
2024/01/16 03:23:56;;;;;;;5.13;2.33;;;-3.00;99.90;;;;;;5051433;28;20177;-64
2024/01/16 03:26:22;;;;;;;7.20;2.53;;;-2.90;99.90;;;;;;5051566;28;20231;-64
2024/01/16 03:28:47;;;;;;;5.20;2.50;;;-3.00;99.90;;;;;;5051150;28;20658;-64
2024/01/16 03:31:18;;;;;;;4.60;1.80;;;-2.90;99.90;;;;;;5051382;28;20249;-64
2024/01/16 03:33:43;;;;;;;11.83;2.83;;;-3.00;99.90;;;;;;5051011;28;20170;-64
2024/01/16 03:36:10;;;;;;;7.47;3.13;;;-3.00;99.90;;;;;;5051517;28;20454;-64
2024/01/16 03:38:39;;;;;;;6.93;2.63;;;-3.00;99.90;;;;;;5051231;28;20185;-64
2024/01/16 03:41:06;;;;;;;7.87;2.07;;;-3.10;99.90;;;;;;5051481;28;20412;-64
2024/01/16 03:43:34;;;;;;;4.70;2.07;;;-3.10;99.90;;;;;;5019233;28;20425;-64
2024/01/16 03:45:59;;;;;;;3.77;2.33;;;-3.10;99.90;;;;;;5044817;28;20411;-63
2024/01/16 03:48:25;;;;;;;6.40;1.70;;;-3.20;99.90;;;;;;5054032;28;20757;-63
2024/01/16 03:50:50;;;;;;;9.60;2.93;;;-3.20;99.90;;;;;;5050686;28;20205;-64
2024/01/16 03:53:16;;;;;;;4.73;2.00;;;-3.30;99.90;;;;;;5048021;28;20189;-64
2024/01/16 03:55:41;;;;;;;6.50;2.60;;;-3.30;99.90;;;;;;5035178;28;20186;-64
2024/01/16 03:58:07;;;;;;;3.57;1.90;;;-3.30;99.90;;;;;;5044990;28;20197;-64
2024/01/16 04:00:33;;;;;;;6.27;2.20;;;-3.40;99.90;;;;;;5047373;28;20186;-63
2024/01/16 04:02:58;;;;;;;5.17;2.23;;;-3.50;99.90;;;;;;5049090;28;20447;-63
2024/01/16 04:05:24;;;;;;;7.07;2.57;;;-3.50;99.90;;;;;;5046925;28;20324;-64
2024/01/16 04:07:49;;;;;;;3.43;2.00;;;-3.60;99.90;;;;;;5054490;28;20181;-64
2024/01/16 04:10:15;;;;;;;4.93;2.03;;;-3.70;99.90;;;;;;5054726;28;20210;-64
2024/01/16 04:12:40;;;;;;;4.93;2.50;;;-3.90;99.90;;;;;;5054429;28;20182;-64
2024/01/16 04:15:06;;;;;;;4.30;2.40;;;-4.00;99.90;;;;;;5048261;28;20193;-64
2024/01/16 04:17:32;;;;;;;6.17;2.23;;;-4.10;99.90;;;;;;5052950;28;20278;-64
2024/01/16 04:19:57;;;;;;;8.03;2.10;;;-4.10;99.90;;;;;;5046323;28;20420;-64
2024/01/16 04:22:23;;;;;;;7.23;1.87;;;-4.20;99.90;;;;;;5054206;28;20174;-64
2024/01/16 04:24:49;;;;;;;7.83;2.13;;;-4.20;99.90;;;;;;5054373;28;20291;-63
2024/01/16 04:27:14;;;;;;;6.00;1.80;;;-4.30;99.90;;;;;;5054180;28;20674;-64
2024/01/16 04:29:40;;;;;;;5.63;2.63;;;-4.30;99.90;;;;;;5042259;28;20268;-64
2024/01/16 04:32:05;;;;;;;5.67;2.27;;;-4.30;99.90;;;;;;5053010;28;20186;-64
2024/01/16 04:34:31;;;;;;;4.67;2.20;;;-4.40;99.90;;;;;;5053649;28;20173;-64
2024/01/16 04:36:56;;;;;;;4.60;2.10;;;-4.40;99.90;;;;;;5053950;28;20205;-64
2024/01/16 04:39:22;;;;;;;4.03;2.30;;;-4.30;99.90;;;;;;5053833;28;20184;-63
2024/01/16 04:41:51;;;;;;;5.13;2.57;;;-4.20;99.90;;;;;;5053978;28;20178;-64
2024/01/16 04:44:16;;;;;;;4.87;2.33;;;-4.20;99.90;;;;;;5041968;28;20228;-64
2024/01/16 04:46:42;;;;;;;4.97;1.80;;;-4.20;99.90;;;;;;5052719;28;20888;-64
2024/01/16 04:49:08;;;;;;;5.40;2.63;;;-4.20;99.90;;;;;;5039857;28;20198;-63
2024/01/16 04:51:34;;;;;;;5.10;2.27;;;-4.20;99.90;;;;;;5052485;28;20200;-63
2024/01/16 04:53:59;;;;;;;5.90;1.83;;;-4.30;99.90;;;;;;5043904;28;20421;-64
2024/01/16 04:56:25;;;;;;;4.47;1.97;;;-4.30;99.90;;;;;;5038845;28;20181;-64
2024/01/16 04:58:52;;;;;;;5.40;2.73;;;-4.40;99.90;;;;;;5035448;28;20210;-64
2024/01/16 05:01:17;;;;;;;5.67;2.33;;;-4.40;99.90;;;;;;5052246;28;20178;-64
2024/01/16 05:03:43;;;;;;;14.57;2.20;;;-4.40;99.90;;;;;;5052533;28;20470;-64
2024/01/16 05:06:15;;;;;;;24.87;7.73;;;-4.40;99.90;;;;;;5053061;28;20205;-64
2024/01/16 05:08:41;;;;;;;6.73;2.17;;;-4.30;99.90;;;;;;5042156;28;20177;-64
2024/01/16 05:11:07;;;;;;;4.03;1.90;;;-4.30;99.90;;;;;;5053168;28;20475;-64
2024/01/16 05:13:33;;;;;;;3.60;1.70;;;-4.40;99.90;;;;;;5047102;28;20421;-64
2024/01/16 05:15:58;;;;;;;4.40;1.90;;;-4.40;99.90;;;;;;5052517;28;20189;-64
2024/01/16 05:18:24;;;;;;;3.00;1.67;;;-4.50;99.90;;;;;;5039430;28;20186;-64
2024/01/16 05:20:49;;;;;;;3.87;2.00;;;-4.50;99.90;;;;;;5052706;28;20225;-65
2024/01/16 05:23:15;;;;;;;8.53;2.20;;;-4.50;99.90;;;;;;5052907;28;20193;-65
2024/01/16 05:25:40;;;;;;;2.37;1.60;;;-4.50;99.90;;;;;;5051648;28;20193;-64
2024/01/16 05:28:06;;;;;;;3.27;1.83;;;-4.40;99.90;;;;;;5052638;28;20278;-65
2024/01/16 05:30:32;;;;;;;8.10;2.87;;;-4.40;99.90;;;;;;5039448;28;20197;-63
2024/01/16 05:33:00;;;;;;;6.83;2.73;;;-4.40;99.90;;;;;;5051940;28;20615;-63
2024/01/16 05:35:27;;;;;;;4.10;1.97;;;-4.30;99.90;;;;;;5052460;28;20467;-63
2024/01/16 05:37:53;;;;;;;4.03;2.00;;;-4.30;99.90;;;;;;5052281;28;20447;-64
2024/01/16 05:40:18;;;;;;;3.37;1.43;;;-4.40;99.90;;;;;;5052519;28;20424;-64
2024/01/16 05:42:44;;;;;;;3.53;1.83;;;-4.50;99.90;;;;;;5050620;28;20677;-63
2024/01/16 05:45:09;;;;;;;6.30;2.77;;;-4.50;99.90;;;;;;5040595;28;20186;-63
2024/01/16 05:47:35;;;;;;;9.90;2.57;;;-4.70;99.90;;;;;;5052233;28;20312;-63
2024/01/16 05:50:00;;;;;;;5.73;2.47;;;-4.80;99.90;;;;;;5032199;28;20237;-63
2024/01/16 05:52:26;;;;;;;2.73;1.70;;;-4.80;99.90;;;;;;5028193;28;20270;-63
2024/01/16 05:54:51;;;;;;;5.10;2.07;;;-4.90;99.90;;;;;;5021431;28;20186;-63
2024/01/16 05:57:17;;;;;;;6.30;2.00;;;-4.90;99.90;;;;;;5040650;28;20177;-63
2024/01/16 05:59:42;;;;;;;6.23;1.93;;;-4.90;99.90;;;;;;5033373;28;20294;-63
2024/01/16 06:02:08;;;;;;;5.70;2.60;;;-4.80;99.90;;;;;;5051971;28;20651;-63
2024/01/16 06:04:33;;;;;;;6.67;2.60;;;-4.70;99.90;;;;;;5051489;28;20221;-63
2024/01/16 06:06:59;;;;;;;5.17;2.30;;;-4.40;99.90;;;;;;5052484;28;20615;-63
2024/01/16 06:09:24;;;;;;;11.07;3.07;;;-4.70;99.90;;;;;;5052039;28;20197;-63
2024/01/16 06:11:50;;;;;;;11.00;4.20;;;-4.60;99.90;;;;;;5044651;28;20749;-63
2024/01/16 06:14:21;;;;;;;6.20;2.10;;;-4.70;99.90;;;;;;5048747;28;20182;-65
2024/01/16 06:16:47;;;;;;;6.10;3.07;;;-4.80;99.90;;;;;;5052380;28;20204;-63
2024/01/16 06:19:12;;;;;;;5.23;2.10;;;-4.80;99.90;;;;;;5051225;28;20897;-63
2024/01/16 06:21:39;;;;;;;7.30;3.30;;;-4.90;99.90;;;;;;5052189;28;20893;-63
2024/01/16 06:24:05;;;;;;;5.67;2.07;;;-4.80;99.90;;;;;;5051474;28;20680;-63
2024/01/16 06:26:31;;;;;;;11.47;2.97;;;-4.70;99.90;;;;;;5051727;28;20424;-63
2024/01/16 06:28:57;;;;;;;9.17;3.80;;;-4.70;99.90;;;;;;5051260;28;20204;-63
2024/01/16 06:31:25;;;;;;;4.13;1.90;;;-4.70;99.90;;;;;;5051532;28;20855;-63
2024/01/16 06:33:50;;;;;;;4.13;1.80;;;-4.80;99.90;;;;;;5051628;28;20169;-63
2024/01/16 06:36:16;;;;;;;4.43;1.97;;;-4.70;99.90;;;;;;5044508;28;20429;-63
2024/01/16 06:38:41;;;;;;;14.33;2.50;;;-4.60;99.90;;;;;;5030483;28;20684;-63
2024/01/16 06:41:07;;;;;;;5.20;2.10;;;-4.60;99.90;;;;;;5042452;28;20185;-63
2024/01/16 06:43:32;;;;;;;5.83;2.27;;;-4.30;99.90;;;;;;5038719;28;20182;-63
2024/01/16 06:45:58;;;;;;;7.17;2.63;;;-4.50;99.90;;;;;;5042144;28;20189;-63
2024/01/16 06:48:24;;;;;;;9.43;2.77;;;-4.60;99.90;;;;;;5049674;28;20189;-63
2024/01/16 06:50:49;;;;;;;6.60;2.23;;;-4.50;99.90;;;;;;5036103;28;20225;-63
2024/01/16 06:53:15;;;;;;;3.80;2.00;;;-4.40;99.90;;;;;;5034797;28;20182;-63
2024/01/16 06:55:40;;;;;;;8.47;2.87;;;-4.40;99.90;;;;;;5026725;28;20189;-63
2024/01/16 06:58:06;;;;;;;6.50;2.10;;;-4.40;99.90;;;;;;5028629;28;20192;-63
2024/01/16 07:00:31;;;;;;;5.90;2.63;;;-4.30;99.90;;;;;;5030048;28;20213;-63
2024/01/16 07:02:57;;;;;;;5.10;2.30;;;-4.30;99.90;;;;;;5037227;28;20797;-63
2024/01/16 07:05:23;;;;;;;10.03;3.80;;;-4.30;99.90;;;;;;5047428;28;20233;-63
2024/01/16 07:07:49;;;;;;;9.33;3.40;;;-4.30;99.90;;;;;;5040434;28;20425;-63
2024/01/16 07:10:18;;;;;;;6.73;2.43;;;-4.30;99.90;;;;;;5047461;28;20673;-63
2024/01/16 07:12:44;;;;;;;5.13;2.50;;;-4.30;99.90;;;;;;5050690;28;20174;-63
2024/01/16 07:15:10;;;;;;;11.77;3.00;;;-4.30;99.90;;;;;;5041564;28;20415;-63
2024/01/16 07:17:35;;;;;;;5.80;2.53;;;-4.40;99.90;;;;;;5049848;28;21146;-63
2024/01/16 07:20:02;;;;;;;7.23;3.10;;;-4.50;99.90;;;;;;5038649;28;20529;-63
2024/01/16 07:22:27;;;;;;;9.37;2.93;;;-4.30;99.90;;;;;;5051726;28;20570;-64
2024/01/16 07:24:53;;;;;;;6.50;2.60;;;-4.60;99.90;;;;;;5053748;28;20443;-63
2024/01/16 07:27:18;;;;;;;6.57;2.63;;;-4.70;99.90;;;;;;5054025;28;20178;-64
2024/01/16 07:29:44;;;;;;;5.47;2.37;;;-4.70;99.90;;;;;;5046869;28;20202;-64
2024/01/16 07:32:10;;;;;;;6.73;2.40;;;-4.80;99.90;;;;;;5046004;28;20313;-63
2024/01/16 07:34:36;;;;;;;9.43;2.67;;;-4.90;99.90;;;;;;5048969;28;20239;-65
2024/01/16 07:37:02;;;;;;;4.33;2.60;;;-4.90;99.90;;;;;;5054015;28;20440;-65
2024/01/16 07:39:27;;;;;;;5.90;3.40;;;-4.90;99.90;;;;;;5053294;28;20201;-64
2024/01/16 07:41:53;;;;;;;8.90;3.50;;;-5.00;99.90;;;;;;5052962;28;20189;-66
2024/01/16 07:44:18;;;;;;;9.33;3.80;;;-5.00;99.90;;;;;;5050081;28;20192;-66
2024/01/16 07:46:44;;;;;;;8.80;2.63;;;-5.00;99.90;;;;;;5053264;28;20182;-66
2024/01/16 07:49:09;;;;;;;5.67;2.80;;;-4.90;99.90;;;;;;5052888;28;20252;-66
2024/01/16 07:51:35;;;;;;;7.90;2.70;;;-4.80;99.90;;;;;;5053403;28;20178;-64
2024/01/16 07:54:08;;;;;;;5.13;2.20;;;-4.60;99.90;;;;;;5053744;28;20287;-64
2024/01/16 07:56:35;;;;;;;5.90;2.00;;;-4.50;99.90;;;;;;5053725;28;20530;-63
2024/01/16 07:59:01;;;;;;;4.00;1.93;;;-4.30;99.90;;;;;;5036757;28;20421;-63
2024/01/16 08:01:28;;;;;;;8.07;2.60;;;-4.20;99.90;;;;;;5038180;28;20876;-64
2024/01/16 08:03:54;;;;;;;4.03;1.60;;;-4.20;99.90;;;;;;5045608;28;20426;-64
2024/01/16 08:06:20;;;;;;;5.33;2.10;;;-4.10;99.90;;;;;;5051339;28;20420;-63
2024/01/16 08:08:46;;;;;;;3.80;1.90;;;-4.10;99.90;;;;;;5033955;28;20485;-63
2024/01/16 08:11:11;;;;;;;8.03;2.50;;;-4.10;99.90;;;;;;5047115;28;20596;-64
2024/01/16 08:13:37;;;;;;;5.87;2.30;;;-4.00;99.90;;;;;;5048586;28;20703;-64
2024/01/16 08:16:03;;;;;;;4.67;2.23;;;-3.90;99.90;;;;;;5052774;28;20185;-64
2024/01/16 08:18:28;;;;;;;5.90;2.27;;;-3.90;99.90;;;;;;5052801;28;20210;-64
2024/01/16 08:20:54;;;;;;;3.30;1.83;;;-3.90;99.90;;;;;;5053093;28;20212;-64
2024/01/16 08:23:21;;;;;;;4.60;1.53;;;-3.80;99.90;;;;;;5050746;28;20185;-66
2024/01/16 08:25:46;;;;;;;4.27;1.67;;;-3.70;99.90;;;;;;5053190;28;20192;-66
2024/01/16 08:28:12;;;;;;;5.43;2.27;;;-3.60;99.90;;;;;;5048317;28;20413;-65
2024/01/16 08:30:37;;;;;;;6.00;2.30;;;-3.50;99.90;;;;;;5033888;28;20210;-65
2024/01/16 08:33:03;;;;;;;3.43;1.43;;;-3.50;99.90;;;;;;5046843;28;20206;-66
2024/01/16 08:35:28;;;;;;;7.20;1.93;;;-3.40;99.90;;;;;;5045143;28;20193;-66
2024/01/16 08:37:54;;;;;;;4.33;1.50;;;-3.30;99.80;;;;;;5049916;28;20183;-65
2024/01/16 08:40:19;;;;;;;6.57;2.53;;;-3.30;99.80;;;;;;5044611;28;20181;-65
2024/01/16 08:42:45;;;;;;;5.90;2.83;;;-3.20;99.50;;;;;;5050980;28;20188;-65
2024/01/16 08:45:11;;;;;;;5.30;1.87;;;-3.20;99.60;;;;;;5047136;28;20178;-65
2024/01/16 08:47:37;;;;;;;2.83;1.63;;;-3.20;99.60;;;;;;5052984;28;20178;-65
2024/01/16 08:50:02;;;;;;;3.13;1.97;;;-3.30;99.80;;;;;;5046351;28;20967;-66
2024/01/16 08:52:28;;;;;;;4.37;2.23;;;-3.20;99.90;;;;;;5050909;28;20181;-65
2024/01/16 08:54:53;;;;;;;4.37;1.90;;;-3.20;99.50;;;;;;5041556;28;20209;-65
2024/01/16 08:57:19;;;;;;;2.60;1.50;;;-3.10;99.50;;;;;;5039177;28;20178;-65
2024/01/16 08:59:44;;;;;;;2.90;1.70;;;-3.10;99.30;;;;;;5014539;28;20270;-65
2024/01/16 09:02:10;;;;;;;19.83;2.70;;;-3.10;99.90;;;;;;5046388;28;20190;-65
2024/01/16 09:04:35;;;;;;;9.33;2.07;;;-3.10;99.90;;;;;;5043885;28;20312;-65
2024/01/16 09:07:04;;;;;;;6.37;2.37;;;-3.10;99.90;;;;;;5052246;28;20217;-65
2024/01/16 09:09:29;;;;;;;9.97;3.73;;;-3.10;99.90;;;;;;5052197;28;20585;-65
2024/01/16 09:11:57;;;;;;;16.13;6.30;;;-3.00;99.90;;;;;;5051905;28;20416;-65
2024/01/16 09:14:23;;;;;;;11.70;3.40;;;-2.90;99.60;;;;;;5044646;28;20603;-65
2024/01/16 09:16:49;;;;;;;6.33;3.50;;;-2.70;99.40;;;;;;5051223;28;20459;-66
2024/01/16 09:19:14;;;;;;;10.07;3.20;;;-2.40;98.70;;;;;;5051855;28;20265;-66
2024/01/16 09:21:40;;;;;;;4.60;2.00;;;-2.30;98.50;;;;;;5052073;28;20184;-65
2024/01/16 09:24:05;;;;;;;4.27;2.50;;;-2.30;98.50;;;;;;5045405;28;20717;-65
2024/01/16 09:26:31;;;;;;;6.40;2.30;;;-2.20;98.40;;;;;;5044478;28;20197;-66
2024/01/16 09:28:57;;;;;;;3.87;2.17;;;-2.20;98.80;;;;;;5032224;28;20193;-66
2024/01/16 09:31:22;;;;;;;7.23;2.57;;;-2.10;98.70;;;;;;5050222;28;20484;-66
2024/01/16 09:33:48;;;;;;;5.43;2.30;;;-2.00;98.00;;;;;;5051477;28;20190;-66
2024/01/16 09:36:14;;;;;;;4.50;2.03;;;-1.80;98.60;;;;;;5036872;28;20200;-66
2024/01/16 09:38:39;;;;;;;10.03;1.83;;;-1.60;98.40;;;;;;5038579;28;20439;-66
2024/01/16 09:41:05;;;;;;;5.33;1.70;;;-1.50;98.20;;;;;;5051718;28;20258;-66
2024/01/16 09:43:32;;;;;;;3.60;2.30;;;-1.40;97.40;;;;;;5045547;28;20174;-66
2024/01/16 09:46:01;;;;;;;2.80;1.53;;;-1.30;97.20;;;;;;5049879;28;20176;-65
2024/01/16 09:48:29;;;;;;;3.50;2.23;;;-1.20;97.40;;;;;;5048940;28;20409;-65
2024/01/16 09:50:55;;;;;;;3.60;1.67;;;-1.10;97.20;;;;;;5046180;28;20472;-65
2024/01/16 09:53:21;;;;;;;5.43;1.80;;;-1.20;96.80;;;;;;5044169;28;20408;-66
2024/01/16 09:55:49;;;;;;;5.23;2.10;;;-1.20;97.80;;;;;;5051557;28;20191;-66
2024/01/16 09:58:16;;;;;;;5.27;2.10;;;-1.00;97.60;;;;;;5040859;28;20268;-65
2024/01/16 10:00:43;;;;;;;7.20;2.20;;;-1.00;97.70;;;;;;5025248;28;20420;-65
2024/01/16 10:03:12;;;;;;;5.83;2.20;;;-0.90;97.30;;;;;;5046140;28;20848;-66
2024/01/16 10:05:42;;;;;;;15.10;6.30;;;-1.00;97.70;;;;;;5046165;28;20464;-66
2024/01/16 10:08:08;;;;;;;4.43;1.70;;;-0.90;97.60;;;;;;5038602;28;20426;-65
2024/01/16 10:10:33;;;;;;;5.00;2.50;;;-0.80;97.50;;;;;;5028844;28;20480;-67
2024/01/16 10:12:59;;;;;;;3.00;1.37;;;-0.80;97.60;;;;;;5028978;28;20270;-67
2024/01/16 10:15:25;;;;;;;4.67;1.57;;;-0.90;96.40;;;;;;5014315;28;20208;-66
2024/01/16 10:17:52;;;;;;;3.17;1.43;;;-0.90;97.30;;;;;;5030709;28;20478;-66
2024/01/16 10:20:35;;;;;;;3.17;2.00;;;-1.00;96.90;;;;;;5040552;28;20611;-66
2024/01/16 10:23:00;;;;;;;3.60;1.27;;;-1.00;96.60;;;;;;5048111;28;21026;-66
2024/01/16 10:25:26;;;;;;;11.90;3.57;;;-0.90;96.40;;;;;;5051001;28;20503;-66
2024/01/16 10:28:05;;;;;;;15.87;6.30;;;-0.70;96.80;;;;;;5050480;28;20181;-66
2024/01/16 10:30:30;;;;;;;3.77;1.97;;;-0.20;96.50;;;;;;5044760;28;20645;-66
2024/01/16 10:33:13;;;;;;;4.30;1.50;;;0.00;95.90;;;;;;5047430;28;20428;-66
2024/01/16 10:35:39;;;;;;;5.13;2.10;;;0.20;95.50;;;;;;5039867;28;20261;-66
2024/01/16 10:38:04;;;;;;;3.67;1.43;;;0.50;94.80;;;;;;5050785;28;21134;-66
2024/01/16 10:40:31;;;;;;;4.47;1.63;;;1.00;94.60;;;;;;5050711;28;20185;-67
2024/01/16 10:43:01;;;;;;;3.70;1.43;;;0.80;94.20;;;;;;5030479;28;20186;-66
2024/01/16 10:45:27;;;;;;;2.97;1.50;;;0.70;93.60;;;;;;5046056;28;20424;-66
2024/01/16 10:48:02;;;;;;;3.33;1.67;;;0.60;93.60;;;;;;5047783;28;20811;-66
2024/01/16 10:50:28;;;;;;;3.93;1.77;;;0.60;94.40;;;;;;5048576;28;20213;-66
2024/01/16 10:52:54;;;;;;;3.57;1.37;;;0.70;93.40;;;;;;5051977;28;20420;-66
2024/01/16 10:55:23;;;;;;;3.40;1.60;;;1.00;93.20;;;;;;5052002;28;20178;-66
2024/01/16 10:57:52;;;;;;;6.70;2.57;;;0.80;93.00;;;;;;5045305;28;20500;-66
2024/01/16 11:00:22;;;;;;;4.70;1.90;;;0.80;93.40;;;;;;5019960;28;20412;-66
2024/01/16 11:03:04;;;;;;;2.20;1.30;;;1.00;93.40;;;;;;5038010;28;20474;-66
2024/01/16 11:05:33;;;;;;;1.90;1.23;;;1.30;92.60;;;;;;5036870;28;20475;-64
2024/01/16 11:08:01;;;;;;;15.90;1.60;;;1.40;92.80;;;;;;5051699;28;20424;-64
2024/01/16 11:10:27;;;;;;;2.77;0.87;;;1.10;92.10;;;;;;5055404;28;20467;-65
2024/01/16 11:12:53;;;;;;;3.40;1.20;;;1.40;93.00;;;;;;5053006;28;20417;-65
2024/01/16 11:15:19;;;;;;;3.83;1.33;;;1.70;92.80;;;;;;5047816;28;20873;-64
2024/01/16 11:17:46;;;;;;;2.30;1.10;;;2.10;92.00;;;;;;5053815;28;20469;-64
2024/01/16 11:20:13;;;;;;;5.33;1.20;;;2.30;90.90;;;;;;5055232;28;20427;-64
2024/01/16 11:22:41;;;;;;;2.33;1.30;;;2.30;91.10;;;;;;5055734;28;20427;-64
2024/01/16 11:25:11;;;;;;;2.57;1.23;;;2.30;91.60;;;;;;5055532;28;20416;-65
2024/01/16 11:27:41;;;;;;;2.33;1.00;;;2.50;91.70;;;;;;5055417;28;20503;-69
2024/01/16 11:30:07;;;;;;;2.00;1.00;;;2.40;91.30;;;;;;5048514;28;20538;-66
2024/01/16 11:32:36;;;;;;;13.87;1.00;;;2.10;91.10;;;;;;5054837;28;20416;-66
2024/01/16 11:35:04;;;;;;;2.97;0.83;;;1.90;91.20;;;;;;5044429;28;20412;-66
2024/01/16 11:37:32;;;;;;;2.43;1.03;;;2.20;91.60;;;;;;5055307;28;20448;-67
2024/01/16 11:40:16;;;;;;;3.50;1.30;;;2.50;91.10;;;;;;5055420;28;20815;-67
2024/01/16 11:42:43;;;;;;;7.27;1.10;;;2.40;90.90;;;;;;5055340;28;20454;-67
2024/01/16 11:45:26;;;;;;;6.30;0.90;;;2.50;90.50;;;;;;5050722;28;20459;-67
2024/01/16 11:48:08;;;;;;;5.23;0.90;;;2.70;90.30;;;;;;5032068;28;20427;-66
2024/01/16 11:50:34;;;;;;;5.23;1.37;;;2.40;90.40;;;;;;5020468;28;20465;-66
2024/01/16 11:52:59;;;;;;;2.73;1.33;;;2.00;90.80;;;;;;5027163;28;20441;-66
2024/01/16 11:55:30;;;;;;;4.10;1.33;;;2.20;91.10;;;;;;5049747;28;20188;-66
2024/01/16 11:58:37;;;;;;;4.97;1.33;;;2.00;90.90;;;;;;5042894;28;20183;-66
2024/01/16 12:01:05;;;;;;;9.77;1.87;;;1.60;91.10;;;;;;5034105;28;20412;-66
2024/01/16 12:03:30;;;;;;;6.03;1.70;;;1.70;91.70;;;;;;5031103;28;20432;-66
2024/01/16 12:06:00;;;;;;;3.67;1.10;;;1.30;91.20;;;;;;5043585;28;20573;-66
2024/01/16 12:08:26;;;;;;;2.63;1.47;;;1.20;91.90;;;;;;5050567;28;20178;-66
2024/01/16 12:10:51;;;;;;;5.80;1.70;;;1.50;91.70;;;;;;5054936;28;20475;-66
2024/01/16 12:13:17;;;;;;;4.90;1.20;;;1.60;92.20;;;;;;5052971;28;20416;-66
2024/01/16 12:15:43;;;;;;;3.03;1.30;;;1.50;91.30;;;;;;5046240;28;20174;-67
2024/01/16 12:18:09;;;;;;;1.87;1.20;;;1.80;91.70;;;;;;5054123;28;20185;-66
2024/01/16 12:20:37;;;;;;;2.60;1.00;;;1.90;91.20;;;;;;5054768;28;20416;-67
2024/01/16 12:23:04;;;;;;;3.13;1.47;;;1.70;91.60;;;;;;5052515;28;20174;-66
2024/01/16 12:25:32;;;;;;;1.90;1.33;;;1.90;92.00;;;;;;5054576;28;20908;-66
2024/01/16 12:28:03;;;;;;;3.00;1.20;;;1.90;91.30;;;;;;5054303;28;20513;-66
2024/01/16 12:30:31;;;;;;;4.33;1.23;;;1.60;90.90;;;;;;5047501;28;20514;-66
2024/01/16 12:33:07;;;;;;;2.47;1.20;;;1.40;91.30;;;;;;5053448;28;20812;-66
2024/01/16 12:35:44;;;;;;;2.37;1.23;;;1.40;92.50;;;;;;5054036;28;20420;-66
2024/01/16 12:38:11;;;;;;;2.60;1.10;;;1.60;91.50;;;;;;5049482;28;20420;-66
2024/01/16 12:40:41;;;;;;;3.40;1.37;;;1.60;91.40;;;;;;5049372;28;20920;-66
2024/01/16 12:43:09;;;;;;;7.23;0.73;;;1.50;91.30;;;;;;5053863;28;20424;-66
2024/01/16 12:45:35;;;;;;;1.50;0.80;;;1.90;92.00;;;;;;5049770;28;20420;-66